createdAt,value
2018-01-03T00:00:56.687Z,6.23
2018-01-03T00:03:24.141Z,9.23
2018-01-03T00:05:51.544Z,6.70
2018-01-03T00:08:18.980Z,7.70
2018-01-03T00:10:46.374Z,6.63
2018-01-03T00:13:13.786Z,6.73
2018-01-03T00:15:41.172Z,7.93
2018-01-03T00:18:08.601Z,5.73
2018-01-03T00:20:36.075Z,14.53
2018-01-03T00:23:03.456Z,7.07
2018-01-03T00:25:30.832Z,9.20
2018-01-03T00:27:58.250Z,3.53
2018-01-03T00:30:25.644Z,9.17
2018-01-03T00:32:53.034Z,9.30
2018-01-03T00:35:20.446Z,12.87
2018-01-03T00:37:47.856Z,7.05
2018-01-03T00:40:15.282Z,8.30
2018-01-03T00:42:42.672Z,6.10
2018-01-03T00:45:10.103Z,7.70
2018-01-03T00:47:37.520Z,7.03
2018-01-03T00:50:05.015Z,4.95
2018-01-03T00:52:32.397Z,6.10
2018-01-03T00:54:59.800Z,3.60
2018-01-03T00:57:27.188Z,8.13
2018-01-03T00:59:54.584Z,2.23
2018-01-03T01:02:21.992Z,4.32
2018-01-03T01:04:49.411Z,8.00
2018-01-03T01:07:16.834Z,5.67
2018-01-03T01:09:44.222Z,6.80
2018-01-03T01:12:11.636Z,4.70
2018-01-03T01:14:39.015Z,7.50
2018-01-03T01:17:06.420Z,3.10
2018-01-03T01:19:33.807Z,4.03
2018-01-03T01:22:01.217Z,4.37
2018-01-03T01:24:28.613Z,4.50
2018-01-03T01:26:56.004Z,8.53
2018-01-03T01:29:23.408Z,3.97
2018-01-03T01:31:50.814Z,5.63
2018-01-03T01:34:18.237Z,7.45
2018-01-03T01:36:45.628Z,4.57
2018-01-03T01:39:13.040Z,2.50
2018-01-03T01:41:40.436Z,4.23
2018-01-03T01:44:07.851Z,3.40
2018-01-03T01:46:35.238Z,5.03
2018-01-03T01:49:07.509Z,6.50
2018-01-03T01:51:34.906Z,5.33
2018-01-03T01:54:02.323Z,3.87
2018-01-03T01:56:29.753Z,2.90
2018-01-03T01:58:57.161Z,7.43
2018-01-03T02:01:24.558Z,3.80
2018-01-03T02:03:51.969Z,4.80
2018-01-03T02:06:19.356Z,4.13
2018-01-03T02:08:46.774Z,5.53
2018-01-03T02:11:14.152Z,3.00
2018-01-03T02:13:41.531Z,3.03
2018-01-03T02:16:08.940Z,2.80
2018-01-03T02:18:36.328Z,5.53
2018-01-03T02:21:03.752Z,5.43
2018-01-03T02:23:31.264Z,3.73
2018-01-03T02:25:58.687Z,5.50
2018-01-03T02:28:26.069Z,2.57
2018-01-03T02:30:53.482Z,4.93
2018-01-03T02:33:20.884Z,3.63
2018-01-03T02:35:48.287Z,2.53
2018-01-03T02:38:27.404Z,2.43
2018-01-03T02:40:54.797Z,4.33
2018-01-03T02:43:22.244Z,2.37
2018-01-03T02:45:49.628Z,2.30
2018-01-03T02:48:17.045Z,4.00
2018-01-03T02:50:44.460Z,2.57
2018-01-03T02:53:11.885Z,5.30
2018-01-03T02:55:39.321Z,2.60
2018-01-03T02:58:06.712Z,4.00
2018-01-03T03:00:34.104Z,2.03
2018-01-03T03:03:01.523Z,3.50
2018-01-03T03:05:28.935Z,2.78
2018-01-03T03:07:56.301Z,1.90
2018-01-03T03:10:23.753Z,2.20
2018-01-03T03:12:51.129Z,2.37
2018-01-03T03:15:18.558Z,9.13
2018-01-03T03:17:45.948Z,2.70
2018-01-03T03:20:13.351Z,2.30
2018-01-03T03:22:40.777Z,9.90
2018-01-03T03:25:08.185Z,2.27
2018-01-03T03:27:35.580Z,4.50
2018-01-03T03:30:02.978Z,1.80
2018-01-03T03:32:30.401Z,5.10
2018-01-03T03:34:57.790Z,1.77
2018-01-03T03:37:25.195Z,2.97
2018-01-03T03:39:52.582Z,2.93
2018-01-03T03:42:19.996Z,2.20
2018-01-03T03:44:47.404Z,3.13
2018-01-03T03:47:14.780Z,2.60
2018-01-03T03:49:42.208Z,1.80
2018-01-03T03:52:09.608Z,2.60
2018-01-03T03:54:36.990Z,2.80
2018-01-03T03:57:04.395Z,2.30
2018-01-03T03:59:31.780Z,1.83
2018-01-03T04:01:59.186Z,2.10
2018-01-03T04:04:26.583Z,2.53
2018-01-03T04:06:53.978Z,1.83
2018-01-03T04:09:21.370Z,2.83
2018-01-03T04:11:48.748Z,1.80
2018-01-03T04:14:16.153Z,1.70
2018-01-03T04:16:43.542Z,1.53
2018-01-03T04:19:10.954Z,1.67
2018-01-03T04:21:38.333Z,2.37
2018-01-03T04:24:05.741Z,2.00
2018-01-03T04:26:33.174Z,4.30
2018-01-03T04:29:00.597Z,3.53
2018-01-03T04:31:28.676Z,1.73
2018-01-03T04:33:56.077Z,3.80
2018-01-03T04:36:23.532Z,2.07
2018-01-03T04:38:50.944Z,3.27
2018-01-03T04:41:18.362Z,1.80
2018-01-03T04:43:45.749Z,1.67
2018-01-03T04:46:13.164Z,1.53
2018-01-03T04:48:40.560Z,3.17
2018-01-03T04:51:07.967Z,1.57
2018-01-03T04:53:35.364Z,1.30
2018-01-03T04:56:02.819Z,3.97
2018-01-03T04:58:30.215Z,1.50
2018-01-03T05:00:57.636Z,3.63
2018-01-03T05:03:25.028Z,1.70
2018-01-03T05:05:52.466Z,1.30
2018-01-03T05:08:19.849Z,1.10
2018-01-03T05:10:47.233Z,1.60
2018-01-03T05:13:14.638Z,1.27
2018-01-03T05:15:42.041Z,2.70
2018-01-03T05:18:09.428Z,5.03
2018-01-03T05:20:36.810Z,1.40
2018-01-03T05:23:04.232Z,1.50
2018-01-03T05:25:31.620Z,5.90
2018-01-03T05:27:59.041Z,1.73
2018-01-03T05:30:26.416Z,2.87
2018-01-03T05:32:53.825Z,6.53
2018-01-03T05:35:21.233Z,1.70
2018-01-03T05:37:48.630Z,1.83
2018-01-03T05:40:16.022Z,2.17
2018-01-03T05:42:43.423Z,1.90
2018-01-03T05:45:10.811Z,1.90
2018-01-03T05:47:38.206Z,1.60
2018-01-03T05:50:05.659Z,1.57
2018-01-03T05:52:33.071Z,1.83
2018-01-03T05:55:00.482Z,2.00
2018-01-03T05:57:27.894Z,1.67
2018-01-03T05:59:55.305Z,2.00
2018-01-03T06:02:22.694Z,2.07
2018-01-03T06:04:50.103Z,1.90
2018-01-03T06:07:17.488Z,1.97
2018-01-03T06:09:45.025Z,4.63
2018-01-03T06:12:12.481Z,2.10
2018-01-03T06:14:41.073Z,2.60
2018-01-03T06:17:08.494Z,3.23
2018-01-03T06:19:35.876Z,4.17
2018-01-03T06:22:03.334Z,1.53
2018-01-03T06:24:30.904Z,2.10
2018-01-03T06:26:58.324Z,8.20
2018-01-03T06:29:26.457Z,5.50
2018-01-03T06:31:54.021Z,1.90
2018-01-03T06:34:21.411Z,4.50
2018-01-03T06:36:48.807Z,1.27
2018-01-03T06:39:16.193Z,1.12
2018-01-03T06:41:43.621Z,1.33
2018-01-03T06:44:11.004Z,1.63
2018-01-03T06:46:38.438Z,1.13
2018-01-03T06:49:05.840Z,0.70
2018-01-03T06:51:33.253Z,1.45
2018-01-03T06:54:00.684Z,1.50
2018-01-03T06:56:28.084Z,3.33
2018-01-03T06:58:55.515Z,1.07
2018-01-03T07:01:22.913Z,1.00
2018-01-03T07:03:50.325Z,1.00
2018-01-03T07:06:17.729Z,1.20
2018-01-03T07:08:45.201Z,0.90
2018-01-03T07:11:12.593Z,3.70
2018-01-03T07:13:40.026Z,1.57
2018-01-03T07:16:07.472Z,2.05
2018-01-03T07:18:34.897Z,2.47
2018-01-03T07:21:02.332Z,2.50
2018-01-03T07:23:29.764Z,0.90
2018-01-03T07:25:57.209Z,2.00
2018-01-03T07:28:24.638Z,1.23
2018-01-03T07:30:52.072Z,3.23
2018-01-03T07:33:19.503Z,1.03
2018-01-03T07:35:46.939Z,2.07
2018-01-03T07:38:14.369Z,1.43
2018-01-03T07:40:42.797Z,1.40
2018-01-03T07:43:10.234Z,2.13
2018-01-03T07:45:37.659Z,5.37
2018-01-03T07:48:05.075Z,2.10
2018-01-03T07:50:32.544Z,3.20
2018-01-03T07:52:59.941Z,4.97
2018-01-03T07:55:27.396Z,4.60
2018-01-03T07:57:54.798Z,3.53
2018-01-03T08:00:22.220Z,3.60
2018-01-03T08:02:49.648Z,3.10
2018-01-03T08:05:17.083Z,1.33
2018-01-03T08:07:44.498Z,1.80
2018-01-03T08:10:11.916Z,1.77
2018-01-03T08:12:39.323Z,3.60
2018-01-03T08:15:06.748Z,2.70
2018-01-03T08:17:34.156Z,3.20
2018-01-03T08:20:01.609Z,2.30
2018-01-03T08:22:29.036Z,3.03
2018-01-03T08:24:56.476Z,1.10
2018-01-03T08:27:23.904Z,1.70
2018-01-03T08:29:52.290Z,1.70
2018-01-03T08:32:19.773Z,2.87
2018-01-03T08:34:47.230Z,1.93
2018-01-03T08:37:14.653Z,3.57
2018-01-03T08:39:42.137Z,2.73
2018-01-03T08:42:09.586Z,1.30
2018-01-03T08:44:37.026Z,5.30
2018-01-03T08:47:04.416Z,1.40
2018-01-03T08:49:31.807Z,1.10
2018-01-03T08:51:59.236Z,1.25
2018-01-03T08:54:26.632Z,1.07
2018-01-03T08:56:54.020Z,2.27
2018-01-03T08:59:21.422Z,1.87
2018-01-03T09:01:48.830Z,2.43
2018-01-03T09:04:16.233Z,1.60
2018-01-03T09:06:43.657Z,5.80
2018-01-03T09:09:11.051Z,3.07
2018-01-03T09:11:38.454Z,2.70
2018-01-03T09:14:05.848Z,3.37
2018-01-03T09:16:33.307Z,2.70
2018-01-03T09:19:00.730Z,4.73
2018-01-03T09:21:28.176Z,2.60
2018-01-03T09:23:55.663Z,3.07
2018-01-03T09:26:23.067Z,2.63
2018-01-03T09:28:50.497Z,3.67
2018-01-03T09:31:17.918Z,2.90
2018-01-03T09:33:45.337Z,2.65
2018-01-03T09:36:13.161Z,4.37
2018-01-03T09:38:40.634Z,7.73
2018-01-03T09:41:08.036Z,2.83
2018-01-03T09:43:35.472Z,4.20
2018-01-03T09:46:02.884Z,1.87
2018-01-03T09:48:30.282Z,4.07
2018-01-03T09:50:57.698Z,2.07
2018-01-03T09:53:25.093Z,2.00
2018-01-03T09:55:52.512Z,8.90
2018-01-03T09:58:19.956Z,8.83
2018-01-03T10:00:47.364Z,2.77
2018-01-03T10:03:14.813Z,4.20
2018-01-03T10:05:42.277Z,4.83
2018-01-03T10:08:09.683Z,2.80
2018-01-03T10:10:37.096Z,3.40
2018-01-03T10:13:04.485Z,4.40
2018-01-03T10:15:31.932Z,3.73
2018-01-03T10:17:59.345Z,3.83
2018-01-03T10:20:26.783Z,1.90
2018-01-03T10:22:54.243Z,3.40
2018-01-03T10:25:21.800Z,0.90
2018-01-03T10:27:49.249Z,0.60
2018-01-03T10:30:16.704Z,1.47
2018-01-03T10:32:44.549Z,1.40
2018-01-03T10:35:12.000Z,0.83
2018-01-03T10:37:39.433Z,1.20
2018-01-03T10:40:06.823Z,0.60
2018-01-03T10:42:34.371Z,0.60
2018-01-03T10:45:01.739Z,0.93
2018-01-03T10:47:29.176Z,0.97
2018-01-03T10:49:56.578Z,2.40
2018-01-03T10:52:24.047Z,0.90
2018-01-03T10:54:51.494Z,1.23
2018-01-03T10:57:18.920Z,1.47
2018-01-03T10:59:46.379Z,1.70
2018-01-03T11:02:13.787Z,3.63
2018-01-03T11:04:41.347Z,2.20
2018-01-03T11:07:08.795Z,1.80
2018-01-03T11:09:36.240Z,1.80
2018-01-03T11:12:03.631Z,3.63
2018-01-03T11:14:31.080Z,1.30
2018-01-03T11:16:58.478Z,1.03
2018-01-03T11:19:25.905Z,2.77
2018-01-03T11:21:53.318Z,10.77
2018-01-03T11:24:20.745Z,2.90
2018-01-03T11:26:48.157Z,3.60
2018-01-03T11:29:15.588Z,4.33
2018-01-03T11:31:43.053Z,3.87
2018-01-03T11:34:10.444Z,4.27
2018-01-03T11:36:37.862Z,7.10
2018-01-03T11:39:05.309Z,6.67
2018-01-03T11:41:32.757Z,11.93
2018-01-03T11:44:00.147Z,4.97
2018-01-03T11:46:27.598Z,4.60
2018-01-03T11:48:54.989Z,6.63
2018-01-03T11:51:22.411Z,13.27
2018-01-03T11:53:49.888Z,5.30
2018-01-03T11:56:17.655Z,7.73
2018-01-03T11:58:45.238Z,6.63
2018-01-03T12:01:15.023Z,5.07
2018-01-03T12:03:44.115Z,12.65
2018-01-03T12:06:11.636Z,6.80
2018-01-03T12:08:39.336Z,5.70
2018-01-03T12:11:06.886Z,16.13
2018-01-03T12:13:34.594Z,9.00
2018-01-03T12:16:02.189Z,6.63
2018-01-03T12:18:29.779Z,6.47
2018-01-03T12:20:59.444Z,4.50
2018-01-03T12:23:28.244Z,5.70
2018-01-03T12:25:56.814Z,2.50
2018-01-03T12:28:26.206Z,6.53
2018-01-03T12:30:53.959Z,5.87
2018-01-03T12:33:21.712Z,7.10
2018-01-03T12:35:50.813Z,28.97
2018-01-03T12:38:19.345Z,4.80
2018-01-03T12:40:46.904Z,7.40
2018-01-03T12:43:15.253Z,5.28
2018-01-03T12:45:42.729Z,6.87
2018-01-03T12:48:12.913Z,3.60
2018-01-03T12:50:40.764Z,14.37
2018-01-03T12:53:08.286Z,10.00
2018-01-03T12:55:35.796Z,8.97
2018-01-03T12:58:03.318Z,8.47
2018-01-03T13:00:30.705Z,12.30
2018-01-03T13:02:58.227Z,11.03
2018-01-03T13:05:25.629Z,5.87
2018-01-03T13:07:53.194Z,9.50
2018-01-03T13:10:20.872Z,5.60
2018-01-03T13:12:48.318Z,12.97
2018-01-03T13:15:16.905Z,9.35
2018-01-03T13:17:44.421Z,14.40
2018-01-03T13:20:11.929Z,11.40
2018-01-03T13:22:39.980Z,9.10
2018-01-03T13:25:07.434Z,11.87
2018-01-03T13:27:34.877Z,8.57
2018-01-03T13:30:02.352Z,9.30
2018-01-03T13:32:29.907Z,14.67
2018-01-03T13:34:57.853Z,10.30
2018-01-03T13:37:25.609Z,24.77
2018-01-03T13:39:53.298Z,5.40
2018-01-03T13:42:20.734Z,13.73
2018-01-03T13:44:48.186Z,12.07
2018-01-03T13:47:15.580Z,8.20
2018-01-03T13:49:43.008Z,5.93
2018-01-03T13:52:10.475Z,7.50
2018-01-03T13:54:37.938Z,17.77
2018-01-03T13:57:05.391Z,5.10
2018-01-03T13:59:32.867Z,7.60
2018-01-03T14:02:00.326Z,6.30
2018-01-03T14:04:27.847Z,17.87
2018-01-03T14:06:55.385Z,6.55
2018-01-03T14:09:22.871Z,12.70
2018-01-03T14:11:50.737Z,7.57
2018-01-03T14:14:18.181Z,11.40
2018-01-03T14:16:45.720Z,6.27
2018-01-03T14:19:13.179Z,10.83
2018-01-03T14:21:40.647Z,8.17
2018-01-03T14:24:08.095Z,14.23
2018-01-03T14:26:35.561Z,12.33
2018-01-03T14:29:02.997Z,8.80
2018-01-03T14:31:30.625Z,9.90
2018-01-03T14:33:58.074Z,5.70
2018-01-03T14:36:25.514Z,9.60
2018-01-03T14:38:53.094Z,8.33
2018-01-03T14:41:20.534Z,6.03
2018-01-03T14:43:47.986Z,4.80
2018-01-03T14:46:15.416Z,5.13
2018-01-03T14:48:42.936Z,10.93
2018-01-03T14:51:10.411Z,7.33
2018-01-03T14:53:37.908Z,12.50
2018-01-03T14:56:05.360Z,7.67
2018-01-03T14:58:32.865Z,15.60
2018-01-03T15:01:00.281Z,8.43
2018-01-03T15:03:27.755Z,8.10
2018-01-03T15:05:55.174Z,13.00
2018-01-03T15:08:22.590Z,11.20
2018-01-03T15:10:50.071Z,8.70
2018-01-03T15:13:17.480Z,12.30
2018-01-03T15:15:45.872Z,6.65
2018-01-03T15:18:13.343Z,13.00
2018-01-03T15:20:40.815Z,9.93
2018-01-03T15:23:08.266Z,14.33
2018-01-03T15:25:35.670Z,5.67
2018-01-03T15:28:03.134Z,5.40
2018-01-03T15:30:30.575Z,8.00
2018-01-03T15:32:58.204Z,8.70
2018-01-03T15:35:25.660Z,6.40
2018-01-03T15:37:53.088Z,7.40
2018-01-03T15:40:20.509Z,5.80
2018-01-03T15:42:47.986Z,7.30
2018-01-03T15:45:15.421Z,4.60
2018-01-03T15:47:43.142Z,9.03
2018-01-03T15:50:10.533Z,9.23
2018-01-03T15:52:38.008Z,13.82
2018-01-03T15:55:05.429Z,7.93
2018-01-03T15:57:32.839Z,7.27
2018-01-03T16:00:00.570Z,9.77
2018-01-03T16:02:28.048Z,10.27
2018-01-03T16:04:55.482Z,3.80
2018-01-03T16:07:23.611Z,10.33
2018-01-03T16:09:51.168Z,8.80
2018-01-03T16:12:19.668Z,12.30
2018-01-03T16:14:47.113Z,6.28
2018-01-03T16:17:14.605Z,9.67
2018-01-03T16:19:42.073Z,4.70
2018-01-03T16:22:10.452Z,17.03
2018-01-03T16:24:38.090Z,6.43
2018-01-03T16:27:05.964Z,14.70
2018-01-03T16:29:33.488Z,10.80
2018-01-03T16:32:00.952Z,9.87
2018-01-03T16:34:28.446Z,10.15
2018-01-03T16:36:55.891Z,13.77
2018-01-03T16:39:23.314Z,10.73
2018-01-03T16:41:51.695Z,7.23
2018-01-03T16:44:19.140Z,10.53
2018-01-03T16:46:46.610Z,20.50
2018-01-03T16:49:14.315Z,13.87
2018-01-03T16:51:47.210Z,8.13
2018-01-03T16:54:14.643Z,9.40
2018-01-03T16:56:42.128Z,10.00
2018-01-03T16:59:09.602Z,7.10
2018-01-03T17:01:37.070Z,4.00
2018-01-03T17:04:04.525Z,12.63
2018-01-03T17:06:31.928Z,6.47
2018-01-03T17:08:59.342Z,9.70
2018-01-03T17:11:26.798Z,12.73
2018-01-03T17:13:54.224Z,9.53
2018-01-03T17:16:21.697Z,8.03
2018-01-03T17:18:49.177Z,9.97
2018-01-03T17:21:16.567Z,5.28
2018-01-03T17:23:43.966Z,4.33
2018-01-03T17:26:11.574Z,7.00
2018-01-03T17:28:40.036Z,5.83
2018-01-03T17:31:07.674Z,8.00
2018-01-03T17:33:35.096Z,7.00
2018-01-03T17:36:02.530Z,5.70
2018-01-03T17:38:29.996Z,8.00
2018-01-03T17:40:57.466Z,11.47
2018-01-03T17:43:24.972Z,6.77
2018-01-03T17:45:52.397Z,13.13
2018-01-03T17:48:19.879Z,6.43
2018-01-03T17:50:47.283Z,7.90
2018-01-03T17:53:14.714Z,7.50
2018-01-03T17:55:42.094Z,8.50
2018-01-03T17:58:09.528Z,5.27
2018-01-03T18:00:36.969Z,3.10
2018-01-03T18:03:04.406Z,15.83
2018-01-03T18:05:31.815Z,5.80
2018-01-03T18:07:59.252Z,4.53
2018-01-03T18:10:26.703Z,5.80
2018-01-03T18:12:54.116Z,6.27
2018-01-03T18:15:21.534Z,8.63
2018-01-03T18:17:49.012Z,7.57
2018-01-03T18:20:16.424Z,8.37
2018-01-03T18:22:43.849Z,5.80
2018-01-03T18:25:11.302Z,4.73
2018-01-03T18:27:38.807Z,11.70
2018-01-03T18:30:06.219Z,7.70
2018-01-03T18:32:33.664Z,15.20
2018-01-03T18:35:01.147Z,8.17
2018-01-03T18:37:28.541Z,20.67
2018-01-03T18:39:55.957Z,10.90
2018-01-03T18:42:23.385Z,11.03
2018-01-03T18:44:50.859Z,13.03
2018-01-03T18:47:18.256Z,7.03
2018-01-03T18:49:45.719Z,9.40
2018-01-03T18:52:13.096Z,14.00
2018-01-03T18:54:40.614Z,10.53
2018-01-03T18:57:08.052Z,10.87
2018-01-03T18:59:35.476Z,9.50
2018-01-03T19:02:05.177Z,14.07
2018-01-03T19:04:33.955Z,13.77
2018-01-03T19:07:04.876Z,15.00
2018-01-03T19:09:32.656Z,13.27
2018-01-03T19:12:02.451Z,15.10
2018-01-03T19:14:29.877Z,15.47
2018-01-03T19:16:57.289Z,16.53
2018-01-03T19:19:26.113Z,15.03
2018-01-03T19:21:53.605Z,15.82
2018-01-03T19:24:21.021Z,14.57
2018-01-03T19:26:48.464Z,10.80
2018-01-03T19:29:15.875Z,15.47
2018-01-03T19:31:44.247Z,23.00
2018-01-03T19:43:51.708Z,10.52
2018-01-03T19:46:19.144Z,12.33
2018-01-03T19:48:46.543Z,11.73
2018-01-03T19:51:13.938Z,11.67
2018-01-03T19:53:41.386Z,11.83
2018-01-03T19:56:08.798Z,7.43
2018-01-03T19:58:36.234Z,14.83
2018-01-03T20:01:03.723Z,10.83
2018-01-03T20:03:31.179Z,15.10
2018-01-03T20:05:58.654Z,21.10
2018-01-03T20:08:26.166Z,10.90
2018-01-03T20:10:53.745Z,14.17
2018-01-03T20:13:21.381Z,10.93
2018-01-03T20:15:48.876Z,15.07
2018-01-03T20:18:16.325Z,13.27
2018-01-03T20:20:43.866Z,10.37
2018-01-03T20:23:11.411Z,15.80
2018-01-03T20:25:39.707Z,15.30
2018-01-03T20:28:07.342Z,15.10
2018-01-03T20:30:34.997Z,13.67
2018-01-03T20:33:02.502Z,16.20
2018-01-03T20:35:30.035Z,16.77
2018-01-03T20:37:57.460Z,16.00
2018-01-03T20:40:24.943Z,22.70
2018-01-03T20:42:52.332Z,24.23
2018-01-03T20:45:19.774Z,17.30
2018-01-03T20:47:47.184Z,22.90
2018-01-03T20:50:14.580Z,25.43
2018-01-03T20:52:42.030Z,19.37
2018-01-03T20:55:09.497Z,14.97
2018-01-03T20:57:36.942Z,29.07
2018-01-03T21:00:04.370Z,24.00
2018-01-03T21:02:31.789Z,25.53
2018-01-03T21:04:59.223Z,24.80
2018-01-03T21:07:26.645Z,24.80
2018-01-03T21:09:54.044Z,32.77
2018-01-03T21:12:21.470Z,25.57
2018-01-03T21:14:48.910Z,26.33
2018-01-03T21:17:16.916Z,29.50
2018-01-03T21:19:44.407Z,28.37
2018-01-03T21:22:11.803Z,18.80
2018-01-03T21:24:39.214Z,25.43
2018-01-03T21:27:06.632Z,23.13
2018-01-03T21:29:34.070Z,22.30
2018-01-03T21:32:01.459Z,21.73
2018-01-03T21:34:28.897Z,14.47
2018-01-03T21:36:56.339Z,26.60
2018-01-03T21:39:23.780Z,29.77
2018-01-03T21:41:51.194Z,25.13
2018-01-03T21:44:18.673Z,29.33
2018-01-03T21:46:46.065Z,29.17
2018-01-03T21:49:13.497Z,18.10
2018-01-03T21:51:40.917Z,25.47
2018-01-03T21:54:08.342Z,24.33
2018-01-03T21:56:35.770Z,12.13
2018-01-03T21:59:03.178Z,19.13
2018-01-03T22:01:30.588Z,11.90
2018-01-03T22:03:57.991Z,15.70
2018-01-03T22:06:25.429Z,11.47
2018-01-03T22:08:52.825Z,9.90
2018-01-03T22:11:20.299Z,17.50
2018-01-03T22:13:47.712Z,14.07
2018-01-03T22:16:15.194Z,7.23
2018-01-03T22:18:42.615Z,16.73
2018-01-03T22:21:10.042Z,15.43
2018-01-03T22:23:37.454Z,12.60
2018-01-03T22:26:04.840Z,9.73
2018-01-03T22:28:32.280Z,11.50
2018-01-03T22:30:59.786Z,11.20
2018-01-03T22:33:27.230Z,9.33
2018-01-03T22:35:54.680Z,10.63
2018-01-03T22:38:22.210Z,13.53
2018-01-03T22:40:49.578Z,9.67
2018-01-03T22:43:17.033Z,12.27
2018-01-03T22:45:44.477Z,15.73
2018-01-03T22:48:11.921Z,20.40
2018-01-03T22:50:39.307Z,15.83
2018-01-03T22:53:06.748Z,14.13
2018-01-03T22:55:34.181Z,14.17
2018-01-03T22:58:01.588Z,10.83
2018-01-03T23:00:29.012Z,14.40
2018-01-03T23:02:56.430Z,10.40
2018-01-03T23:05:23.852Z,17.70
2018-01-03T23:07:51.245Z,9.80
2018-01-03T23:10:18.753Z,15.13
2018-01-03T23:12:46.611Z,12.93
2018-01-03T23:15:14.033Z,10.30
2018-01-03T23:17:41.439Z,13.57
2018-01-03T23:20:08.847Z,27.53
2018-01-03T23:22:36.270Z,13.73
2018-01-03T23:25:03.670Z,17.83
2018-01-03T23:27:31.188Z,9.63
2018-01-03T23:29:58.589Z,12.87
2018-01-03T23:32:26.032Z,15.77
2018-01-03T23:34:53.438Z,16.53
2018-01-03T23:37:20.833Z,21.53
2018-01-03T23:39:48.329Z,17.02
2018-01-03T23:42:15.720Z,17.33
2018-01-03T23:44:43.134Z,17.60
2018-01-03T23:47:10.568Z,31.20
2018-01-03T23:49:38.019Z,19.57
2018-01-03T23:52:05.438Z,20.13
2018-01-03T23:54:32.834Z,14.33
2018-01-03T23:57:00.279Z,18.23
2018-01-03T23:59:27.673Z,21.80
